sensor_id;sensor_type;location;lat;lon;timestamp;pressure;altitude;pressure_sealevel;temperature;humidity
22389;BME280;11362;48.102;11.620;2023-03-20T00:00:30;95383.41;;;23.73;36.01
22389;BME280;11362;48.102;11.620;2023-03-20T00:02:56;95376.31;;;23.72;35.96
22389;BME280;11362;48.102;11.620;2023-03-20T00:05:23;95385.38;;;23.73;36.03
22389;BME280;11362;48.102;11.620;2023-03-20T00:07:50;95380.28;;;23.71;35.95
22389;BME280;11362;48.102;11.620;2023-03-20T00:10:16;95391.38;;;23.71;36.05
22389;BME280;11362;48.102;11.620;2023-03-20T00:12:43;95391.38;;;23.71;35.93
22389;BME280;11362;48.102;11.620;2023-03-20T00:15:25;95378.28;;;23.72;36.20
22389;BME280;11362;48.102;11.620;2023-03-20T00:17:50;95391.38;;;23.71;35.77
22389;BME280;11362;48.102;11.620;2023-03-20T00:20:15;95385.03;;;23.71;35.99
22389;BME280;11362;48.102;11.620;2023-03-20T00:22:41;95379.13;;;23.69;35.92
22389;BME280;11362;48.102;11.620;2023-03-20T00:25:12;95387.44;;;23.69;35.95
22389;BME280;11362;48.102;11.620;2023-03-20T00:27:37;95380.31;;;23.68;36.15
22389;BME280;11362;48.102;11.620;2023-03-20T00:30:19;95381.88;;;23.69;35.94
22389;BME280;11362;48.102;11.620;2023-03-20T00:32:46;95383.88;;;23.68;36.10
22389;BME280;11362;48.102;11.620;2023-03-20T00:35:40;95378.78;;;23.63;35.97
22389;BME280;11362;48.102;11.620;2023-03-20T00:38:06;95382.28;;;23.67;35.91
22389;BME280;11362;48.102;11.620;2023-03-20T00:40:31;95380.31;;;23.68;36.00
22389;BME280;11362;48.102;11.620;2023-03-20T00:43:01;95377.16;;;23.66;36.00
22389;BME280;11362;48.102;11.620;2023-03-20T00:45:28;95372.41;;;23.66;35.88
22389;BME280;11362;48.102;11.620;2023-03-20T00:47:55;95376.38;;;23.65;35.83
22389;BME280;11362;48.102;11.620;2023-03-20T00:50:28;95382.69;;;23.66;35.92
22389;BME280;11362;48.102;11.620;2023-03-20T00:52:54;95386.69;;;23.65;35.83
22389;BME280;11362;48.102;11.620;2023-03-20T00:55:22;95382.34;;;23.64;36.02
22389;BME280;11362;48.102;11.620;2023-03-20T00:57:51;95380.38;;;23.64;35.81
22389;BME280;11362;48.102;11.620;2023-03-20T01:00:22;95380.38;;;23.64;35.83
22389;BME280;11362;48.102;11.620;2023-03-20T01:02:50;95381.97;;;23.62;35.93
22389;BME280;11362;48.102;11.620;2023-03-20T01:05:15;95378.00;;;23.63;35.94
22389;BME280;11362;48.102;11.620;2023-03-20T01:07:41;95385.50;;;23.62;35.81
22389;BME280;11362;48.102;11.620;2023-03-20T01:10:06;95381.56;;;23.63;35.65
22389;BME280;11362;48.102;11.620;2023-03-20T01:12:32;95379.56;;;23.64;35.75
22389;BME280;11362;48.102;11.620;2023-03-20T01:14:58;95383.13;;;23.64;35.81
22389;BME280;11362;48.102;11.620;2023-03-20T01:17:25;95385.13;;;23.64;35.83
22389;BME280;11362;48.102;11.620;2023-03-20T01:19:52;95381.56;;;23.63;35.75
22389;BME280;11362;48.102;11.620;2023-03-20T01:22:17;95379.97;;;23.62;35.91
22389;BME280;11362;48.102;11.620;2023-03-20T01:24:43;95379.97;;;23.62;35.90
22389;BME280;11362;48.102;11.620;2023-03-20T01:27:18;95385.50;;;23.62;35.69
22389;BME280;11362;48.102;11.620;2023-03-20T01:29:44;95379.97;;;23.62;35.83
22389;BME280;11362;48.102;11.620;2023-03-20T01:32:12;95391.06;;;23.62;35.69
22389;BME280;11362;48.102;11.620;2023-03-20T01:34:37;95385.94;;;23.61;35.77
22389;BME280;11362;48.102;11.620;2023-03-20T01:37:03;95390.69;;;23.60;35.74
22389;BME280;11362;48.102;11.620;2023-03-20T01:39:33;95393.47;;;23.60;35.85
22389;BME280;11362;48.102;11.620;2023-03-20T01:41:59;95389.50;;;23.61;35.73
22389;BME280;11362;48.102;11.620;2023-03-20T01:44:30;95394.28;;;23.61;35.73
22389;BME280;11362;48.102;11.620;2023-03-20T01:46:57;95390.69;;;23.60;35.80
22389;BME280;11362;48.102;11.620;2023-03-20T01:51:48;95389.94;;;23.60;35.69
22389;BME280;11362;48.102;11.620;2023-03-20T01:54:18;95391.50;;;23.61;35.69
22389;BME280;11362;48.102;11.620;2023-03-20T01:56:50;95385.16;;;23.60;35.81
22389;BME280;11362;48.102;11.620;2023-03-20T01:59:26;95390.69;;;23.60;35.71
22389;BME280;11362;48.102;11.620;2023-03-20T02:01:53;95385.16;;;23.60;35.75
22389;BME280;11362;48.102;11.620;2023-03-20T02:04:21;95378.03;;;23.59;35.64
22389;BME280;11362;48.102;11.620;2023-03-20T02:06:48;95382.78;;;23.59;35.75
22389;BME280;11362;48.102;11.620;2023-03-20T02:09:13;95378.44;;;23.58;35.66
22389;BME280;11362;48.102;11.620;2023-03-20T02:11:41;95380.81;;;23.59;35.83
22389;BME280;11362;48.102;11.620;2023-03-20T02:14:08;95386.34;;;23.59;35.57
22389;BME280;11362;48.102;11.620;2023-03-20T02:16:33;95382.00;;;23.58;35.59
22389;BME280;11362;48.102;11.620;2023-03-20T02:18:59;95385.56;;;23.59;35.63
22389;BME280;11362;48.102;11.620;2023-03-20T02:36:22;95386.00;;;23.57;35.65
22389;BME280;11362;48.102;11.620;2023-03-20T02:39:05;95374.91;;;23.57;35.65
22389;BME280;11362;48.102;11.620;2023-03-20T02:41:53;95384.78;;;23.58;35.68
22389;BME280;11362;48.102;11.620;2023-03-20T02:44:31;95379.66;;;23.57;35.58
22389;BME280;11362;48.102;11.620;2023-03-20T02:47:07;95384.78;;;23.58;35.53
22389;BME280;11362;48.102;11.620;2023-03-20T02:52:43;95381.22;;;23.58;35.38
22389;BME280;11362;48.102;11.620;2023-03-20T02:58:11;95379.25;;;23.58;35.60
22389;BME280;11362;48.102;11.620;2023-03-20T03:03:30;95387.56;;;23.58;35.55
22389;BME280;11362;48.102;11.620;2023-03-20T03:06:05;95386.75;;;23.58;35.53
22389;BME280;11362;48.102;11.620;2023-03-20T03:08:37;95388.75;;;23.57;35.59
22389;BME280;11362;48.102;11.620;2023-03-20T03:11:06;95385.19;;;23.57;35.55
22389;BME280;11362;48.102;11.620;2023-03-20T03:13:35;95385.19;;;23.57;35.57
22389;BME280;11362;48.102;11.620;2023-03-20T03:16:07;95358.25;;;23.57;35.63
22389;BME280;11362;48.102;11.620;2023-03-20T03:18:34;95361.03;;;23.57;35.51
22389;BME280;11362;48.102;11.620;2023-03-20T03:21:03;95384.44;;;23.56;35.52
22389;BME280;11362;48.102;11.620;2023-03-20T03:23:34;95380.84;;;23.56;35.48
22389;BME280;11362;48.102;11.620;2023-03-20T03:26:01;95389.97;;;23.56;35.54
22389;BME280;11362;48.102;11.620;2023-03-20T03:28:33;95384.44;;;23.56;35.44
22389;BME280;11362;48.102;11.620;2023-03-20T03:31:00;95389.97;;;23.56;35.55
22389;BME280;11362;48.102;11.620;2023-03-20T03:33:29;95386.41;;;23.56;35.51
22389;BME280;11362;48.102;11.620;2023-03-20T03:38:32;95387.19;;;23.56;35.30
22389;BME280;11362;48.102;11.620;2023-03-20T03:41:15;95401.06;;;23.56;35.50
22389;BME280;11362;48.102;11.620;2023-03-20T03:46:45;95399.47;;;23.55;35.54
22389;BME280;11362;48.102;11.620;2023-03-20T03:49:20;95404.25;;;23.55;35.61
22389;BME280;11362;48.102;11.620;2023-03-20T03:51:49;95405.81;;;23.56;35.51
22389;BME280;11362;48.102;11.620;2023-03-20T03:54:29;95403.44;;;23.54;35.55
22389;BME280;11362;48.102;11.620;2023-03-20T03:56:56;95399.09;;;23.53;35.51
22389;BME280;11362;48.102;11.620;2023-03-20T03:59:30;95410.16;;;23.57;35.57
22389;BME280;11362;48.102;11.620;2023-03-20T04:02:00;95406.59;;;23.56;35.56
22389;BME280;11362;48.102;11.620;2023-03-20T04:04:27;95405.81;;;23.56;35.41
22389;BME280;11362;48.102;11.620;2023-03-20T04:06:53;95412.16;;;23.56;35.76
22389;BME280;11362;48.102;11.620;2023-03-20T04:09:18;95410.94;;;23.57;35.45
22389;BME280;11362;48.102;11.620;2023-03-20T04:11:48;95412.16;;;23.56;35.41
22389;BME280;11362;48.102;11.620;2023-03-20T04:14:14;95418.47;;;23.57;35.44
22389;BME280;11362;48.102;11.620;2023-03-20T04:16:39;95423.25;;;23.56;35.38
22389;BME280;11362;48.102;11.620;2023-03-20T04:19:04;95424.84;;;23.54;35.51
22389;BME280;11362;48.102;11.620;2023-03-20T04:21:29;95424.00;;;23.57;35.49
22389;BME280;11362;48.102;11.620;2023-03-20T04:23:55;95430.34;;;23.57;35.42
22389;BME280;11362;48.102;11.620;2023-03-20T04:26:20;95428.78;;;23.56;35.43
22389;BME280;11362;48.102;11.620;2023-03-20T04:28:45;95424.81;;;23.57;35.37
22389;BME280;11362;48.102;11.620;2023-03-20T04:31:10;95432.75;;;23.55;35.59
22389;BME280;11362;48.102;11.620;2023-03-20T04:33:36;95431.56;;;23.56;35.41
22389;BME280;11362;48.102;11.620;2023-03-20T04:36:02;95432.34;;;23.57;35.14
22389;BME280;11362;48.102;11.620;2023-03-20T04:38:27;95442.66;;;23.56;35.54
22389;BME280;11362;48.102;11.620;2023-03-20T04:40:53;95436.69;;;23.58;35.40
22389;BME280;11362;48.102;11.620;2023-03-20T04:43:18;95443.44;;;23.57;35.44
22389;BME280;11362;48.102;11.620;2023-03-20T04:45:43;95447.75;;;23.58;35.43
22389;BME280;11362;48.102;11.620;2023-03-20T04:48:09;95445.44;;;23.56;35.47
22389;BME280;11362;48.102;11.620;2023-03-20T04:50:34;95446.19;;;23.57;35.31
22389;BME280;11362;48.102;11.620;2023-03-20T04:52:59;95448.97;;;23.57;35.47
22389;BME280;11362;48.102;11.620;2023-03-20T04:55:25;95450.97;;;23.56;35.53
22389;BME280;11362;48.102;11.620;2023-03-20T04:57:51;95459.66;;;23.58;35.51
22389;BME280;11362;48.102;11.620;2023-03-20T05:00:16;95452.53;;;23.57;35.29
22389;BME280;11362;48.102;11.620;2023-03-20T05:02:42;95454.13;;;23.58;35.27
22389;BME280;11362;48.102;11.620;2023-03-20T05:05:07;95457.28;;;23.57;35.30
22389;BME280;11362;48.102;11.620;2023-03-20T05:07:33;95463.19;;;23.59;35.42
22389;BME280;11362;48.102;11.620;2023-03-20T05:09:58;95463.63;;;23.57;35.43
22389;BME280;11362;48.102;11.620;2023-03-20T05:12:24;95465.97;;;23.59;35.39
22389;BME280;11362;48.102;11.620;2023-03-20T05:14:49;95469.19;;;23.57;35.29
22389;BME280;11362;48.102;11.620;2023-03-20T05:17:14;95463.63;;;23.57;35.65
22389;BME280;11362;48.102;11.620;2023-03-20T05:19:40;95466.78;;;23.59;35.25
22389;BME280;11362;48.102;11.620;2023-03-20T05:22:05;95475.50;;;23.58;35.17
22389;BME280;11362;48.102;11.620;2023-03-20T05:24:30;95472.31;;;23.59;35.37
22389;BME280;11362;48.102;11.620;2023-03-20T05:26:56;95470.34;;;23.60;35.26
22389;BME280;11362;48.102;11.620;2023-03-20T05:29:21;95470.75;;;23.58;35.31
22389;BME280;11362;48.102;11.620;2023-03-20T05:31:47;95476.28;;;23.58;35.37
22389;BME280;11362;48.102;11.620;2023-03-20T05:34:12;95477.50;;;23.57;35.39
22389;BME280;11362;48.102;11.620;2023-03-20T05:36:37;95482.63;;;23.59;35.26
22389;BME280;11362;48.102;11.620;2023-03-20T05:39:03;95478.28;;;23.58;35.28
22389;BME280;11362;48.102;11.620;2023-03-20T05:41:28;95487.38;;;23.58;35.42
22389;BME280;11362;48.102;11.620;2023-03-20T05:43:53;95485.81;;;23.57;35.30
22389;BME280;11362;48.102;11.620;2023-03-20T05:46:19;95494.91;;;23.58;35.40
22389;BME280;11362;48.102;11.620;2023-03-20T05:48:44;95496.91;;;23.57;35.35
22389;BME280;11362;48.102;11.620;2023-03-20T05:51:09;95498.47;;;23.58;35.31
22389;BME280;11362;48.102;11.620;2023-03-20T05:53:35;95496.09;;;23.57;35.27
22389;BME280;11362;48.102;11.620;2023-03-20T05:56:00;95495.34;;;23.56;35.31
22389;BME280;11362;48.102;11.620;2023-03-20T05:58:25;95488.97;;;23.59;35.01
22389;BME280;11362;48.102;11.620;2023-03-20T06:00:50;95504.03;;;23.58;35.20
22389;BME280;11362;48.102;11.620;2023-03-20T06:03:16;95496.09;;;23.57;35.33
22389;BME280;11362;48.102;11.620;2023-03-20T06:05:41;95505.22;;;23.57;35.42
22389;BME280;11362;48.102;11.620;2023-03-20T06:08:08;95513.53;;;23.57;35.28
22389;BME280;11362;48.102;11.620;2023-03-20T06:10:33;95515.13;;;23.58;35.32
22389;BME280;11362;48.102;11.620;2023-03-20T06:12:58;95519.47;;;23.59;35.26
22389;BME280;11362;48.102;11.620;2023-03-20T06:15:24;95515.13;;;23.58;35.19
22389;BME280;11362;48.102;11.620;2023-03-20T06:17:49;95516.69;;;23.59;35.29
22389;BME280;11362;48.102;11.620;2023-03-20T06:20:16;95525.81;;;23.60;35.25
22389;BME280;11362;48.102;11.620;2023-03-20T06:22:41;95533.31;;;23.59;35.25
22389;BME280;11362;48.102;11.620;2023-03-20T06:25:07;95526.22;;;23.58;35.14
22389;BME280;11362;48.102;11.620;2023-03-20T06:27:32;95524.63;;;23.57;35.16
22389;BME280;11362;48.102;11.620;2023-03-20T06:29:58;95523.44;;;23.58;35.25
22389;BME280;11362;48.102;11.620;2023-03-20T06:32:23;95536.50;;;23.58;35.19
22389;BME280;11362;48.102;11.620;2023-03-20T06:34:48;95535.28;;;23.59;35.21
22389;BME280;11362;48.102;11.620;2023-03-20T06:37:14;95538.06;;;23.59;35.36
22389;BME280;11362;48.102;11.620;2023-03-20T06:39:39;95532.53;;;23.59;35.20
22389;BME280;11362;48.102;11.620;2023-03-20T06:42:04;95536.09;;;23.59;34.96
22389;BME280;11362;48.102;11.620;2023-03-20T06:44:30;95537.31;;;23.58;35.24
22389;BME280;11362;48.102;11.620;2023-03-20T06:46:55;95542.84;;;23.58;35.19
22389;BME280;11362;48.102;11.620;2023-03-20T06:49:20;95542.84;;;23.58;35.13
22389;BME280;11362;48.102;11.620;2023-03-20T06:51:45;95537.31;;;23.58;35.11
22389;BME280;11362;48.102;11.620;2023-03-20T06:54:11;95545.63;;;23.58;35.18
22389;BME280;11362;48.102;11.620;2023-03-20T06:56:36;95540.06;;;23.58;35.09
22389;BME280;11362;48.102;11.620;2023-03-20T06:59:01;95540.06;;;23.58;35.20
22389;BME280;11362;48.102;11.620;2023-03-20T07:01:27;95537.31;;;23.58;35.25
22389;BME280;11362;48.102;11.620;2023-03-20T07:03:52;95541.66;;;23.59;35.21
22389;BME280;11362;48.102;11.620;2023-03-20T07:06:17;95544.41;;;23.59;35.08
22389;BME280;11362;48.102;11.620;2023-03-20T07:08:43;95542.84;;;23.58;35.10
22389;BME280;11362;48.102;11.620;2023-03-20T07:11:08;95544.41;;;23.59;35.21
22389;BME280;11362;48.102;11.620;2023-03-20T07:13:34;95538.06;;;23.59;34.88
22389;BME280;11362;48.102;11.620;2023-03-20T07:16:00;95554.72;;;23.59;35.31
22389;BME280;11362;48.102;11.620;2023-03-20T07:18:26;95543.22;;;23.60;35.70
22389;BME280;11362;48.102;11.620;2023-03-20T07:20:52;95545.22;;;23.60;35.86
22389;BME280;11362;48.102;11.620;2023-03-20T07:23:17;95543.59;;;23.62;35.79
22389;BME280;11362;48.102;11.620;2023-03-20T07:25:43;95541.22;;;23.64;36.10
22389;BME280;11362;48.102;11.620;2023-03-20T07:28:08;95538.81;;;23.66;36.23
22389;BME280;11362;48.102;11.620;2023-03-20T07:30:34;95545.91;;;23.67;36.49
22389;BME280;11362;48.102;11.620;2023-03-20T07:32:59;95551.84;;;23.69;36.90
22389;BME280;11362;48.102;11.620;2023-03-20T07:35:24;95559.00;;;23.70;36.83
22389;BME280;11362;48.102;11.620;2023-03-20T07:37:49;95559.38;;;23.69;37.01
22389;BME280;11362;48.102;11.620;2023-03-20T07:40:15;95563.31;;;23.71;37.05
22389;BME280;11362;48.102;11.620;2023-03-20T07:42:40;95566.44;;;23.77;37.11
22389;BME280;11362;48.102;11.620;2023-03-20T07:45:06;95571.56;;;23.82;37.41
22389;BME280;11362;48.102;11.620;2023-03-20T07:47:32;95581.03;;;23.84;37.69
22389;BME280;11362;48.102;11.620;2023-03-20T07:49:57;95578.66;;;23.86;38.00
22389;BME280;11362;48.102;11.620;2023-03-20T07:52:22;95581.41;;;23.90;38.27
22389;BME280;11362;48.102;11.620;2023-03-20T07:54:47;95571.50;;;23.89;38.28
22389;BME280;11362;48.102;11.620;2023-03-20T07:57:13;95567.94;;;23.88;38.30
22389;BME280;11362;48.102;11.620;2023-03-20T07:59:38;95572.69;;;23.88;38.22
22389;BME280;11362;48.102;11.620;2023-03-20T08:02:04;95563.59;;;23.84;37.98
22389;BME280;11362;48.102;11.620;2023-03-20T08:04:29;95572.72;;;23.84;37.98
22389;BME280;11362;48.102;11.620;2023-03-20T08:06:54;95564.78;;;23.86;38.09
22389;BME280;11362;48.102;11.620;2023-03-20T08:09:19;95577.47;;;23.87;38.05
22389;BME280;11362;48.102;11.620;2023-03-20T08:11:45;95565.97;;;23.85;37.61
22389;BME280;11362;48.102;11.620;2023-03-20T08:14:10;95564.78;;;23.86;37.72
22389;BME280;11362;48.102;11.620;2023-03-20T08:16:36;95577.47;;;23.87;37.81
22389;BME280;11362;48.102;11.620;2023-03-20T08:19:01;95576.66;;;23.87;37.77
22389;BME280;11362;48.102;11.620;2023-03-20T08:21:28;95544.16;;;23.87;37.81
22389;BME280;11362;48.102;11.620;2023-03-20T08:23:53;95548.16;;;23.86;37.85
22389;BME280;11362;48.102;11.620;2023-03-20T08:26:19;95547.34;;;23.86;37.70
22389;BME280;11362;48.102;11.620;2023-03-20T08:28:44;95588.94;;;23.89;37.78
22389;BME280;11362;48.102;11.620;2023-03-20T08:31:09;95578.19;;;23.91;37.54
22389;BME280;11362;48.102;11.620;2023-03-20T08:33:35;95583.00;;;23.87;37.34
22389;BME280;11362;48.102;11.620;2023-03-20T08:36:00;95575.09;;;23.86;37.51
22389;BME280;11362;48.102;11.620;2023-03-20T08:38:26;95584.59;;;23.88;37.59
22389;BME280;11362;48.102;11.620;2023-03-20T08:40:51;95577.44;;;23.91;37.50
22389;BME280;11362;48.102;11.620;2023-03-20T08:43:16;95565.53;;;23.90;38.04
22389;BME280;11362;48.102;11.620;2023-03-20T08:45:41;95569.50;;;23.89;38.40
22389;BME280;11362;48.102;11.620;2023-03-20T08:48:07;95574.28;;;23.89;38.30
22389;BME280;11362;48.102;11.620;2023-03-20T08:50:33;95571.50;;;23.89;38.95
22389;BME280;11362;48.102;11.620;2023-03-20T08:52:58;95570.72;;;23.88;38.86
22389;BME280;11362;48.102;11.620;2023-03-20T08:55:23;95566.38;;;23.87;38.50
22389;BME280;11362;48.102;11.620;2023-03-20T08:57:49;95570.34;;;23.86;38.95
22389;BME280;11362;48.102;11.620;2023-03-20T09:00:15;95571.91;;;23.87;39.02
22389;BME280;11362;48.102;11.620;2023-03-20T09:02:41;95595.69;;;23.88;38.97
22389;BME280;11362;48.102;11.620;2023-03-20T09:05:08;95573.84;;;23.90;38.73
22389;BME280;11362;48.102;11.620;2023-03-20T09:07:34;95582.19;;;23.90;38.91
22389;BME280;11362;48.102;11.620;2023-03-20T09:09:59;95572.28;;;23.89;39.33
22389;BME280;11362;48.102;11.620;2023-03-20T09:12:24;95579.00;;;23.92;38.71
22389;BME280;11362;48.102;11.620;2023-03-20T09:14:50;95575.84;;;23.90;38.50
22389;BME280;11362;48.102;11.620;2023-03-20T09:17:15;95550.09;;;23.89;38.72
22389;BME280;11362;48.102;11.620;2023-03-20T09:19:40;95536.63;;;23.88;38.62
22389;BME280;11362;48.102;11.620;2023-03-20T09:22:06;95541.00;;;23.85;38.27
22389;BME280;11362;48.102;11.620;2023-03-20T09:24:31;95558.84;;;23.84;38.44
22389;BME280;11362;48.102;11.620;2023-03-20T09:26:57;95575.88;;;23.86;38.79
22389;BME280;11362;48.102;11.620;2023-03-20T09:29:22;95583.00;;;23.87;38.88
22389;BME280;11362;48.102;11.620;2023-03-20T09:31:49;95578.19;;;23.91;39.20
22389;BME280;11362;48.102;11.620;2023-03-20T09:34:14;95575.84;;;23.90;38.93
22389;BME280;11362;48.102;11.620;2023-03-20T09:36:40;95547.72;;;23.88;38.73
22389;BME280;11362;48.102;11.620;2023-03-20T09:39:05;95552.50;;;23.87;39.28
22389;BME280;11362;48.102;11.620;2023-03-20T09:41:32;95550.94;;;23.86;38.84
22389;BME280;11362;48.102;11.620;2023-03-20T09:44:09;95585.78;;;23.87;38.86
22389;BME280;11362;48.102;11.620;2023-03-20T09:47:02;95579.03;;;23.88;38.88
22389;BME280;11362;48.102;11.620;2023-03-20T09:52:27;95584.53;;;23.92;39.12
22389;BME280;11362;48.102;11.620;2023-03-20T09:54:57;95573.09;;;23.90;38.98
22389;BME280;11362;48.102;11.620;2023-03-20T09:57:30;95584.94;;;23.90;39.20
22389;BME280;11362;48.102;11.620;2023-03-20T10:00:03;95572.28;;;23.89;39.21
22389;BME280;11362;48.102;11.620;2023-03-20T10:02:38;95571.88;;;23.91;39.45
22389;BME280;11362;48.102;11.620;2023-03-20T10:05:27;95571.06;;;23.90;39.45
22389;BME280;11362;48.102;11.620;2023-03-20T10:07:55;95561.56;;;23.91;39.35
22389;BME280;11362;48.102;11.620;2023-03-20T10:10:30;95565.53;;;23.90;39.42
22389;BME280;11362;48.102;11.620;2023-03-20T10:13:13;95566.31;;;23.91;39.39
22389;BME280;11362;48.102;11.620;2023-03-20T10:15:49;95564.31;;;23.91;39.52
22389;BME280;11362;48.102;11.620;2023-03-20T10:18:26;95557.59;;;23.92;39.46
22389;BME280;11362;48.102;11.620;2023-03-20T10:20:58;95586.97;;;23.90;39.35
22389;BME280;11362;48.102;11.620;2023-03-20T10:23:34;95562.00;;;23.90;39.15
22389;BME280;11362;48.102;11.620;2023-03-20T10:26:05;95563.19;;;23.89;38.76
22389;BME280;11362;48.102;11.620;2023-03-20T10:28:39;95564.78;;;23.86;38.73
22389;BME280;11362;48.102;11.620;2023-03-20T10:31:22;95558.03;;;23.84;38.20
22389;BME280;11362;48.102;11.620;2023-03-20T10:36:42;95552.09;;;23.85;38.26
22389;BME280;11362;48.102;11.620;2023-03-20T10:39:56;95526.31;;;23.85;38.31
22389;BME280;11362;48.102;11.620;2023-03-20T10:42:29;95515.63;;;23.83;38.38
22389;BME280;11362;48.102;11.620;2023-03-20T10:45:00;95571.13;;;23.83;38.08
22389;BME280;11362;48.102;11.620;2023-03-20T10:47:27;95570.75;;;23.81;37.99
22389;BME280;11362;48.102;11.620;2023-03-20T10:50:10;95567.97;;;23.81;38.05
22389;BME280;11362;48.102;11.620;2023-03-20T10:52:38;95556.50;;;23.79;37.74
22389;BME280;11362;48.102;11.620;2023-03-20T10:55:26;95559.28;;;23.79;37.39
22389;BME280;11362;48.102;11.620;2023-03-20T10:58:01;95551.72;;;23.80;37.23
22389;BME280;11362;48.102;11.620;2023-03-20T11:00:27;95548.97;;;23.80;37.25
22389;BME280;11362;48.102;11.620;2023-03-20T11:02:53;95504.97;;;23.82;37.19
22389;BME280;11362;48.102;11.620;2023-03-20T11:05:29;95555.31;;;23.80;37.16
22389;BME280;11362;48.102;11.620;2023-03-20T11:08:33;95555.69;;;23.38;34.95
22389;BME280;11362;48.102;11.620;2023-03-20T11:11:00;95551.22;;;23.01;33.74
22389;BME280;11362;48.102;11.620;2023-03-20T11:13:32;95548.34;;;23.15;33.09
22389;BME280;11362;48.102;11.620;2023-03-20T11:16:09;95551.16;;;23.08;32.23
22389;BME280;11362;48.102;11.620;2023-03-20T11:18:34;95554.00;;;23.01;31.99
22389;BME280;11362;48.102;11.620;2023-03-20T11:21:00;95548.84;;;22.99;32.17
22389;BME280;11362;48.102;11.620;2023-03-20T11:23:32;95492.63;;;23.06;32.22
22389;BME280;11362;48.102;11.620;2023-03-20T11:25:58;95489.69;;;23.23;32.58
22389;BME280;11362;48.102;11.620;2023-03-20T11:31:06;95478.81;;;23.46;33.04
22389;BME280;11362;48.102;11.620;2023-03-20T11:33:50;95482.28;;;23.53;33.45
22389;BME280;11362;48.102;11.620;2023-03-20T11:36:22;95471.16;;;23.57;33.45
22389;BME280;11362;48.102;11.620;2023-03-20T11:38:50;95473.16;;;23.56;33.69
22389;BME280;11362;48.102;11.620;2023-03-20T11:41:23;95483.41;;;23.59;33.91
22389;BME280;11362;48.102;11.620;2023-03-20T11:43:48;95479.00;;;23.65;34.03
22389;BME280;11362;48.102;11.620;2023-03-20T11:46:14;95476.94;;;23.69;33.98
22389;BME280;11362;48.102;11.620;2023-03-20T11:48:41;95466.25;;;23.71;34.11
22389;BME280;11362;48.102;11.620;2023-03-20T11:51:09;95460.72;;;23.71;34.16
22389;BME280;11362;48.102;11.620;2023-03-20T11:53:40;95459.50;;;23.72;34.30
22389;BME280;11362;48.102;11.620;2023-03-20T11:56:09;95458.31;;;23.73;34.83
22389;BME280;11362;48.102;11.620;2023-03-20T12:01:22;95479.69;;;23.73;35.04
22389;BME280;11362;48.102;11.620;2023-03-20T12:06:25;95486.03;;;23.73;35.04
22389;BME280;11362;48.102;11.620;2023-03-20T12:08:59;95482.47;;;23.73;35.14
22389;BME280;11362;48.102;11.620;2023-03-20T12:11:42;95487.25;;;23.72;35.36
22389;BME280;11362;48.102;11.620;2023-03-20T12:14:16;95483.25;;;23.73;35.54
22389;BME280;11362;48.102;11.620;2023-03-20T12:16:43;95486.41;;;23.75;35.50
22389;BME280;11362;48.102;11.620;2023-03-20T12:19:15;95478.47;;;23.77;35.40
22389;BME280;11362;48.102;11.620;2023-03-20T12:21:47;95487.97;;;23.76;35.48
22389;BME280;11362;48.102;11.620;2023-03-20T12:24:32;95486.78;;;23.77;35.36
22389;BME280;11362;48.102;11.620;2023-03-20T12:29:31;95488.72;;;23.80;35.63
22389;BME280;11362;48.102;11.620;2023-03-20T12:32:02;95479.63;;;23.80;35.42
22389;BME280;11362;48.102;11.620;2023-03-20T12:34:33;95474.03;;;23.83;35.80
22389;BME280;11362;48.102;11.620;2023-03-20T12:36:58;95476.81;;;23.83;35.57
22389;BME280;11362;48.102;11.620;2023-03-20T12:39:26;95469.69;;;23.82;35.72
22389;BME280;11362;48.102;11.620;2023-03-20T12:45:12;95474.88;;;23.80;35.80
22389;BME280;11362;48.102;11.620;2023-03-20T12:52:57;95479.66;;;23.76;35.69
22389;BME280;11362;48.102;11.620;2023-03-20T13:06:31;95469.34;;;23.77;35.66
22389;BME280;11362;48.102;11.620;2023-03-20T13:14:34;95482.41;;;23.76;35.46
22389;BME280;11362;48.102;11.620;2023-03-20T13:17:14;95481.66;;;23.76;35.59
22389;BME280;11362;48.102;11.620;2023-03-20T13:20:15;95482.41;;;23.76;35.63
22389;BME280;11362;48.102;11.620;2023-03-20T13:38:42;95473.88;;;23.97;35.42
22389;BME280;11362;48.102;11.620;2023-03-20T13:41:09;95473.06;;;24.00;35.41
22389;BME280;11362;48.102;11.620;2023-03-20T13:43:40;95466.78;;;23.96;35.33
22389;BME280;11362;48.102;11.620;2023-03-20T13:46:13;95463.53;;;24.01;35.39
22389;BME280;11362;48.102;11.620;2023-03-20T13:48:42;95462.34;;;24.02;35.20
22389;BME280;11362;48.102;11.620;2023-03-20T13:51:31;95461.50;;;24.05;35.33
22389;BME280;11362;48.102;11.620;2023-03-20T13:54:13;95459.13;;;24.07;35.32
22389;BME280;11362;48.102;11.620;2023-03-20T13:56:51;95456.34;;;24.07;35.34
22389;BME280;11362;48.102;11.620;2023-03-20T13:59:34;95450.41;;;24.05;35.49
22389;BME280;11362;48.102;11.620;2023-03-20T14:04:51;95445.69;;;24.02;35.53
22389;BME280;11362;48.102;11.620;2023-03-20T14:07:34;95452.00;;;24.06;35.71
22389;BME280;11362;48.102;11.620;2023-03-20T14:12:48;95445.97;;;24.11;35.83
22389;BME280;11362;48.102;11.620;2023-03-20T14:15:14;95444.75;;;24.12;36.15
22389;BME280;11362;48.102;11.620;2023-03-20T14:17:43;95443.09;;;24.18;35.77
22389;BME280;11362;48.102;11.620;2023-03-20T14:20:19;95440.75;;;24.17;36.02
22389;BME280;11362;48.102;11.620;2023-03-20T14:22:46;95436.44;;;24.12;36.18
22389;BME280;11362;48.102;11.620;2023-03-20T14:25:16;95432.13;;;24.08;36.14
22389;BME280;11362;48.102;11.620;2023-03-20T14:30:44;95433.38;;;24.03;36.16
22389;BME280;11362;48.102;11.620;2023-03-20T14:36:09;95423.50;;;24.02;36.17
22389;BME280;11362;48.102;11.620;2023-03-20T14:38:48;95430.63;;;24.03;36.23